Time;durP1;ratioP1;P1;durP2;ratioP2;P2;SDS_P1;SDS_P2;PMS_P1;PMS_P2;Temp;Humidity;BMP_temperature;BMP_pressure;BME280_temperature;BME280_humidity;BME280_pressure;Samples;Min_cycle;Max_cycle;Signal;HPM_P1;HPM_P2
2020/12/25 00:01:26;;;;;;;158.83;72.53;;;;;;;;;;4369194;32;20305;-54
2020/12/25 00:03:52;;;;;;;207.57;78.97;;;;;;;;;;4370690;32;20249;-54
2020/12/25 00:06:19;;;;;;;145.37;71.47;;;;;;;;;;4369513;32;20440;-54
2020/12/25 00:08:46;;;;;;;150.90;75.30;;;;;;;;;;4370742;32;20282;-54
2020/12/25 00:11:11;;;;;;;159.27;73.50;;;;;;;;;;4370334;32;20603;-54
2020/12/25 00:13:37;;;;;;;167.53;75.20;;;;;;;;;;4354596;32;20320;-53
2020/12/25 00:16:03;;;;;;;146.20;75.43;;;;;;;;;;4371236;32;20307;-54
2020/12/25 00:18:28;;;;;;;195.27;75.20;;;;;;;;;;4371024;32;20276;-53
2020/12/25 00:20:54;;;;;;;165.50;79.17;;;;;;;;;;4356904;32;20305;-54
2020/12/25 00:23:20;;;;;;;160.37;77.00;;;;;;;;;;4370839;32;20542;-54
2020/12/25 00:25:46;;;;;;;199.07;83.03;;;;;;;;;;4345504;32;20375;-55
2020/12/25 00:28:12;;;;;;;289.73;82.33;;;;;;;;;;4370192;32;20256;-54
2020/12/25 00:30:41;;;;;;;155.27;72.80;;;;;;;;;;4370094;32;20293;-54
2020/12/25 00:33:06;;;;;;;126.37;64.63;;;;;;;;;;4356956;32;20683;-54
2020/12/25 00:35:32;;;;;;;174.63;68.00;;;;;;;;;;4370010;32;20273;-52
2020/12/25 00:37:58;;;;;;;158.33;68.93;;;;;;;;;;4370145;32;20273;-53
2020/12/25 00:40:25;;;;;;;163.53;71.27;;;;;;;;;;4356384;32;20250;-54
2020/12/25 00:42:50;;;;;;;145.20;64.77;;;;;;;;;;4369874;32;20256;-53
2020/12/25 00:45:16;;;;;;;156.20;72.60;;;;;;;;;;4367080;32;20233;-53
2020/12/25 00:47:41;;;;;;;196.43;90.37;;;;;;;;;;4370374;32;20746;-52
2020/12/25 00:50:07;;;;;;;174.83;75.97;;;;;;;;;;4357996;32;20674;-52
2020/12/25 00:52:33;;;;;;;131.33;65.10;;;;;;;;;;4370752;32;20319;-52
2020/12/25 00:54:58;;;;;;;194.47;66.33;;;;;;;;;;4376879;32;20321;-52
2020/12/25 00:57:23;;;;;;;147.47;65.50;;;;;;;;;;4362367;32;20667;-53
2020/12/25 00:59:49;;;;;;;148.90;64.40;;;;;;;;;;4361476;32;20230;-52
2020/12/25 01:02:15;;;;;;;136.37;65.50;;;;;;;;;;4373289;32;20339;-53
2020/12/25 01:04:41;;;;;;;131.73;62.53;;;;;;;;;;4360860;32;20314;-53
2020/12/25 01:07:07;;;;;;;166.93;63.47;;;;;;;;;;4348565;32;20718;-54
2020/12/25 01:09:33;;;;;;;132.50;64.43;;;;;;;;;;4373287;32;20418;-53
2020/12/25 01:12:00;;;;;;;150.97;66.10;;;;;;;;;;4365395;32;20305;-54
2020/12/25 01:14:31;;;;;;;148.93;66.03;;;;;;;;;;4369569;32;20293;-54
2020/12/25 01:16:58;;;;;;;150.80;65.73;;;;;;;;;;4372832;32;20276;-53
2020/12/25 01:19:24;;;;;;;164.43;67.40;;;;;;;;;;4373307;32;20560;-57
2020/12/25 01:21:50;;;;;;;134.37;65.67;;;;;;;;;;4367670;32;20232;-58
2020/12/25 01:24:15;;;;;;;154.07;69.50;;;;;;;;;;4372252;32;20651;-58
2020/12/25 01:26:41;;;;;;;232.73;94.77;;;;;;;;;;4374476;32;20695;-58
2020/12/25 01:29:06;;;;;;;204.80;96.27;;;;;;;;;;4370992;32;20303;-58
2020/12/25 01:31:32;;;;;;;341.17;106.40;;;;;;;;;;4359744;32;20376;-58
2020/12/25 01:33:58;;;;;;;269.60;98.90;;;;;;;;;;4363813;32;20751;-58
2020/12/25 01:36:23;;;;;;;176.97;77.60;;;;;;;;;;4359784;32;20364;-58
2020/12/25 01:38:48;;;;;;;166.17;85.87;;;;;;;;;;4373487;32;20206;-58
2020/12/25 01:41:14;;;;;;;281.27;87.30;;;;;;;;;;4373571;32;20337;-57
2020/12/25 01:43:40;;;;;;;163.37;76.13;;;;;;;;;;4372895;32;20670;-58
2020/12/25 01:46:05;;;;;;;161.97;76.57;;;;;;;;;;4373584;32;20791;-56
2020/12/25 01:48:32;;;;;;;228.70;78.07;;;;;;;;;;4371854;32;20273;-56
2020/12/25 01:50:58;;;;;;;153.30;70.87;;;;;;;;;;4357972;32;20254;-56
2020/12/25 01:53:27;;;;;;;176.93;72.23;;;;;;;;;;4370390;32;20277;-56
2020/12/25 01:55:53;;;;;;;205.80;73.70;;;;;;;;;;4358704;32;20260;-56
2020/12/25 01:58:20;;;;;;;217.17;80.97;;;;;;;;;;4370323;32;20256;-57
2020/12/25 02:00:49;;;;;;;157.47;79.53;;;;;;;;;;4368703;32;20214;-55
2020/12/25 02:03:15;;;;;;;246.73;89.77;;;;;;;;;;4370626;32;20358;-56
2020/12/25 02:05:42;;;;;;;246.53;101.17;;;;;;;;;;4372187;32;20355;-56
2020/12/25 02:08:08;;;;;;;232.30;102.73;;;;;;;;;;4363055;32;20246;-57
2020/12/25 02:10:33;;;;;;;264.73;106.50;;;;;;;;;;4368943;32;20226;-56
2020/12/25 02:12:59;;;;;;;248.33;104.17;;;;;;;;;;4368146;32;20209;-57
2020/12/25 02:15:25;;;;;;;284.43;107.50;;;;;;;;;;4372247;32;20340;-57
2020/12/25 02:17:50;;;;;;;260.93;102.63;;;;;;;;;;4359328;32;20723;-57
2020/12/25 02:20:16;;;;;;;198.67;99.53;;;;;;;;;;4363753;32;20276;-58
2020/12/25 02:22:42;;;;;;;205.00;94.03;;;;;;;;;;4359802;32;20267;-58
2020/12/25 02:25:07;;;;;;;312.10;83.37;;;;;;;;;;4372536;32;20396;-58
2020/12/25 02:27:33;;;;;;;171.27;75.37;;;;;;;;;;4372595;32;20314;-58
2020/12/25 02:29:58;;;;;;;201.30;73.53;;;;;;;;;;4358923;32;20288;-58
2020/12/25 02:32:24;;;;;;;135.23;71.33;;;;;;;;;;4370444;32;20225;-58
2020/12/25 02:34:49;;;;;;;137.27;66.00;;;;;;;;;;4369428;32;20249;-60
2020/12/25 02:37:14;;;;;;;170.90;61.47;;;;;;;;;;4372636;32;20878;-59
2020/12/25 02:39:40;;;;;;;186.33;66.30;;;;;;;;;;4368550;32;20295;-58
2020/12/25 02:42:10;;;;;;;222.17;65.43;;;;;;;;;;4372098;32;20227;-58
2020/12/25 02:44:35;;;;;;;209.67;62.67;;;;;;;;;;4372474;32;20419;-59
2020/12/25 02:47:00;;;;;;;205.27;57.03;;;;;;;;;;4372855;32;20274;-59
2020/12/25 02:49:26;;;;;;;189.50;60.47;;;;;;;;;;4358057;32;20762;-59
2020/12/25 02:51:52;;;;;;;222.30;57.70;;;;;;;;;;4369391;32;20376;-58
2020/12/25 02:54:18;;;;;;;124.47;51.03;;;;;;;;;;4374486;32;20258;-59
2020/12/25 02:56:43;;;;;;;122.13;46.53;;;;;;;;;;4372787;32;20234;-59
2020/12/25 02:59:08;;;;;;;134.43;46.90;;;;;;;;;;4373627;32;20309;-59
2020/12/25 03:01:34;;;;;;;94.30;46.20;;;;;;;;;;4371450;32;20390;-58
2020/12/25 03:03:59;;;;;;;95.43;47.13;;;;;;;;;;4371975;32;20345;-59
2020/12/25 03:06:25;;;;;;;100.70;44.90;;;;;;;;;;4373346;32;20296;-59
2020/12/25 03:08:50;;;;;;;89.87;43.63;;;;;;;;;;4372986;32;20297;-59
2020/12/25 03:11:15;;;;;;;139.30;42.00;;;;;;;;;;4374418;32;20383;-59
2020/12/25 03:13:41;;;;;;;183.57;40.27;;;;;;;;;;4371666;32;20372;-58
2020/12/25 03:16:06;;;;;;;70.90;42.03;;;;;;;;;;4371782;32;20244;-56
2020/12/25 03:18:32;;;;;;;84.13;40.60;;;;;;;;;;4372571;32;20226;-56
2020/12/25 03:20:57;;;;;;;72.53;39.70;;;;;;;;;;4360112;32;20256;-56
2020/12/25 03:23:23;;;;;;;69.13;38.23;;;;;;;;;;4372187;32;20318;-57
2020/12/25 03:25:49;;;;;;;143.63;43.47;;;;;;;;;;4370218;32;20226;-57
2020/12/25 03:28:14;;;;;;;146.60;43.93;;;;;;;;;;4374824;32;20290;-56
2020/12/25 03:30:40;;;;;;;128.00;44.57;;;;;;;;;;4371827;32;20249;-56
2020/12/25 03:33:05;;;;;;;89.10;48.50;;;;;;;;;;4376423;32;20296;-57
2020/12/25 03:35:31;;;;;;;86.43;46.97;;;;;;;;;;4358670;32;20325;-57
2020/12/25 03:37:56;;;;;;;95.43;46.67;;;;;;;;;;4375706;32;20305;-57
2020/12/25 03:40:22;;;;;;;106.83;46.87;;;;;;;;;;4370230;32;20271;-57
2020/12/25 03:42:48;;;;;;;138.03;47.97;;;;;;;;;;4371908;32;20214;-57
2020/12/25 03:45:14;;;;;;;93.63;46.77;;;;;;;;;;4370800;32;20287;-57
2020/12/25 03:47:40;;;;;;;146.10;61.33;;;;;;;;;;4374510;32;20643;-56
2020/12/25 03:50:05;;;;;;;135.13;68.80;;;;;;;;;;4370096;32;20241;-56
2020/12/25 03:52:31;;;;;;;255.47;84.30;;;;;;;;;;4369348;32;20206;-56
2020/12/25 03:54:56;;;;;;;174.23;85.13;;;;;;;;;;4372174;32;20605;-57
2020/12/25 03:57:21;;;;;;;174.87;86.70;;;;;;;;;;4371342;32;20371;-56
2020/12/25 03:59:47;;;;;;;185.93;88.80;;;;;;;;;;4371490;32;20376;-57
2020/12/25 04:02:12;;;;;;;333.53;93.80;;;;;;;;;;4371837;32;20320;-57
2020/12/25 04:04:38;;;;;;;218.10;66.60;;;;;;;;;;4357882;32;20651;-60
2020/12/25 04:07:03;;;;;;;133.03;59.60;;;;;;;;;;4360853;32;20230;-61
2020/12/25 04:09:29;;;;;;;136.47;54.67;;;;;;;;;;4370693;32;20244;-61
2020/12/25 04:11:54;;;;;;;91.30;49.43;;;;;;;;;;4375317;32;20372;-56
2020/12/25 04:14:19;;;;;;;109.13;48.37;;;;;;;;;;4357563;32;20621;-56
2020/12/25 04:16:45;;;;;;;102.90;45.90;;;;;;;;;;4371792;32;20324;-55
2020/12/25 04:19:11;;;;;;;78.83;43.90;;;;;;;;;;4373556;32;20324;-55
2020/12/25 04:21:38;;;;;;;90.17;43.93;;;;;;;;;;4371745;32;20210;-56
2020/12/25 04:24:04;;;;;;;92.63;43.90;;;;;;;;;;4357615;32;20233;-56
2020/12/25 04:26:29;;;;;;;187.60;43.90;;;;;;;;;;4364747;32;20297;-55
2020/12/25 04:28:55;;;;;;;78.97;41.10;;;;;;;;;;4372732;32;20426;-55
2020/12/25 04:31:24;;;;;;;100.57;42.63;;;;;;;;;;4372187;32;20358;-56
2020/12/25 04:33:50;;;;;;;126.70;43.73;;;;;;;;;;4354679;32;20332;-57
2020/12/25 04:36:16;;;;;;;157.20;43.40;;;;;;;;;;4371399;32;20315;-56
2020/12/25 04:38:41;;;;;;;77.53;41.43;;;;;;;;;;4370533;32;20222;-55
2020/12/25 04:41:07;;;;;;;104.33;42.20;;;;;;;;;;4369534;32;20287;-56
2020/12/25 04:43:35;;;;;;;73.07;42.00;;;;;;;;;;4367979;32;20284;-56
2020/12/25 04:46:00;;;;;;;107.43;43.37;;;;;;;;;;4370818;32;20660;-56
2020/12/25 04:48:26;;;;;;;80.53;43.93;;;;;;;;;;4357489;32;20275;-56
2020/12/25 04:50:51;;;;;;;100.27;43.90;;;;;;;;;;4372395;32;20301;-55
2020/12/25 04:53:17;;;;;;;179.50;50.33;;;;;;;;;;4371670;32;20565;-56
2020/12/25 04:55:42;;;;;;;88.77;49.03;;;;;;;;;;4357420;32;20644;-55
2020/12/25 04:58:08;;;;;;;169.73;52.97;;;;;;;;;;4370959;32;20292;-56
2020/12/25 05:00:33;;;;;;;84.33;48.20;;;;;;;;;;4373305;32;20252;-56
2020/12/25 05:02:59;;;;;;;95.57;50.03;;;;;;;;;;4367693;32;20644;-56
2020/12/25 05:05:29;;;;;;;118.37;49.87;;;;;;;;;;4372039;32;20403;-56
2020/12/25 05:07:56;;;;;;;75.77;43.43;;;;;;;;;;4365611;32;20296;-57
2020/12/25 05:10:21;;;;;;;93.33;48.90;;;;;;;;;;4371429;32;20218;-55
2020/12/25 05:12:47;;;;;;;104.27;47.53;;;;;;;;;;4367734;32;20686;-58
2020/12/25 05:15:14;;;;;;;92.87;48.63;;;;;;;;;;4366417;32;20662;-58
2020/12/25 05:17:41;;;;;;;114.57;49.97;;;;;;;;;;4371423;32;20368;-59
2020/12/25 05:20:07;;;;;;;193.73;61.70;;;;;;;;;;4371623;32;20223;-57
2020/12/25 05:22:33;;;;;;;114.30;57.23;;;;;;;;;;4371140;32;20309;-57
2020/12/25 05:25:19;;;;;;;121.47;59.87;;;;;;;;;;4365629;32;20725;-58
2020/12/25 05:27:44;;;;;;;134.27;60.80;;;;;;;;;;4370440;32;20275;-58
2020/12/25 05:30:13;;;;;;;124.47;60.17;;;;;;;;;;4370301;32;20401;-57
2020/12/25 05:32:43;;;;;;;124.20;58.80;;;;;;;;;;4370492;32;20198;-56
2020/12/25 05:35:12;;;;;;;130.27;58.50;;;;;;;;;;4367258;32;20306;-57
2020/12/25 05:37:38;;;;;;;136.17;62.30;;;;;;;;;;4370303;32;20234;-56
2020/12/25 05:40:06;;;;;;;140.97;61.97;;;;;;;;;;4352183;32;20260;-56
2020/12/25 05:42:48;;;;;;;129.07;60.13;;;;;;;;;;4372814;32;20483;-57
2020/12/25 05:45:17;;;;;;;123.70;54.97;;;;;;;;;;4373337;32;20215;-55
2020/12/25 05:47:46;;;;;;;101.53;53.57;;;;;;;;;;4353721;32;20237;-57
2020/12/25 05:50:11;;;;;;;136.03;47.20;;;;;;;;;;4367176;32;20324;-56
2020/12/25 05:52:38;;;;;;;84.93;41.40;;;;;;;;;;4372710;32;20624;-57
2020/12/25 05:55:04;;;;;;;143.27;47.20;;;;;;;;;;4368964;32;20233;-57
2020/12/25 05:57:33;;;;;;;98.67;43.90;;;;;;;;;;4373729;32;20687;-56
2020/12/25 06:00:04;;;;;;;83.43;43.07;;;;;;;;;;4372429;32;20374;-57
2020/12/25 06:02:33;;;;;;;130.37;53.53;;;;;;;;;;4374173;32;20295;-58
2020/12/25 06:04:59;;;;;;;88.13;46.87;;;;;;;;;;4372666;32;20214;-59
2020/12/25 06:07:29;;;;;;;115.43;47.10;;;;;;;;;;4371775;32;20799;-59
2020/12/25 06:09:58;;;;;;;115.73;52.10;;;;;;;;;;4369631;32;20407;-59
2020/12/25 06:12:50;;;;;;;122.93;50.17;;;;;;;;;;4359061;32;20250;-56
2020/12/25 06:15:33;;;;;;;161.43;51.50;;;;;;;;;;4372963;32;20330;-58
2020/12/25 06:18:23;;;;;;;73.93;43.80;;;;;;;;;;4372365;32;20257;-59
2020/12/25 06:20:56;;;;;;;103.37;47.63;;;;;;;;;;4369261;32;20260;-59
2020/12/25 06:23:25;;;;;;;106.37;54.77;;;;;;;;;;4372552;32;20214;-58
2020/12/25 06:25:51;;;;;;;156.43;55.97;;;;;;;;;;4371089;32;20286;-58
2020/12/25 06:28:20;;;;;;;88.83;50.93;;;;;;;;;;4375887;32;20337;-58
2020/12/25 06:30:46;;;;;;;114.73;54.97;;;;;;;;;;4374691;32;20210;-58
2020/12/25 06:33:12;;;;;;;113.73;53.70;;;;;;;;;;4360380;32;20248;-57
2020/12/25 06:35:39;;;;;;;96.83;47.83;;;;;;;;;;4372740;32;20331;-58
2020/12/25 06:38:08;;;;;;;91.00;50.07;;;;;;;;;;4372602;32;20304;-58
2020/12/25 06:40:34;;;;;;;122.53;66.40;;;;;;;;;;4369296;32;20377;-57
2020/12/25 06:43:00;;;;;;;143.00;82.43;;;;;;;;;;4374730;32;20237;-57
2020/12/25 06:45:32;;;;;;;206.30;68.27;;;;;;;;;;4361301;32;20249;-57
2020/12/25 06:48:13;;;;;;;119.27;62.30;;;;;;;;;;4372414;32;20268;-57
2020/12/25 06:50:45;;;;;;;115.50;66.00;;;;;;;;;;4365096;32;20564;-56
2020/12/25 06:53:10;;;;;;;140.33;56.77;;;;;;;;;;4373016;32;20194;-57
2020/12/25 06:55:43;;;;;;;132.80;56.50;;;;;;;;;;4368256;32;20540;-57
2020/12/25 06:58:10;;;;;;;116.50;55.97;;;;;;;;;;4371305;32;20638;-57
2020/12/25 07:00:39;;;;;;;133.37;61.27;;;;;;;;;;4371332;32;20226;-58
2020/12/25 07:03:14;;;;;;;153.10;60.97;;;;;;;;;;4370623;32;20665;-56
2020/12/25 07:05:47;;;;;;;124.20;66.73;;;;;;;;;;4356360;32;20339;-56
2020/12/25 07:08:27;;;;;;;177.57;75.13;;;;;;;;;;4373171;32;20322;-57
2020/12/25 07:11:08;;;;;;;125.80;68.47;;;;;;;;;;4376628;32;20218;-57
2020/12/25 07:13:35;;;;;;;188.60;76.87;;;;;;;;;;4370629;32;20520;-56
2020/12/25 07:16:01;;;;;;;148.63;71.23;;;;;;;;;;4371643;32;20219;-57
2020/12/25 07:18:27;;;;;;;172.67;74.57;;;;;;;;;;4372147;32;20229;-56
2020/12/25 07:20:57;;;;;;;141.57;69.13;;;;;;;;;;4370059;32;20257;-56
2020/12/25 07:23:23;;;;;;;154.73;70.40;;;;;;;;;;4371216;32;20689;-57
2020/12/25 07:25:48;;;;;;;146.90;73.87;;;;;;;;;;4361883;32;20325;-57
2020/12/25 07:28:14;;;;;;;159.67;73.07;;;;;;;;;;4372938;32;20308;-55
2020/12/25 07:30:40;;;;;;;147.77;76.17;;;;;;;;;;4372405;32;20210;-55
2020/12/25 07:33:06;;;;;;;148.87;70.63;;;;;;;;;;4372878;32;20260;-57
2020/12/25 07:35:32;;;;;;;164.33;72.37;;;;;;;;;;4355468;32;20437;-57
2020/12/25 07:37:58;;;;;;;191.00;73.33;;;;;;;;;;4367043;32;20289;-56
2020/12/25 07:40:23;;;;;;;241.13;81.07;;;;;;;;;;4365725;32;20752;-55
2020/12/25 07:42:52;;;;;;;157.70;78.13;;;;;;;;;;4371537;32;20211;-56
2020/12/25 07:45:19;;;;;;;173.73;84.07;;;;;;;;;;4367349;32;20226;-55
2020/12/25 07:47:47;;;;;;;194.47;84.57;;;;;;;;;;4368619;32;20442;-56
2020/12/25 07:50:12;;;;;;;194.60;85.27;;;;;;;;;;4371569;32;20222;-56
2020/12/25 07:52:40;;;;;;;171.40;81.93;;;;;;;;;;4358596;32;20252;-56
2020/12/25 07:55:05;;;;;;;231.97;95.83;;;;;;;;;;4358713;32;20324;-56
2020/12/25 07:57:31;;;;;;;179.57;87.20;;;;;;;;;;4370801;32;20283;-56
2020/12/25 07:59:56;;;;;;;196.40;88.30;;;;;;;;;;4370942;32;20246;-56
2020/12/25 08:02:22;;;;;;;205.90;94.87;;;;;;;;;;4357316;32;20214;-55
2020/12/25 08:04:48;;;;;;;233.90;102.00;;;;;;;;;;4368057;32;20388;-56
2020/12/25 08:07:14;;;;;;;246.70;105.30;;;;;;;;;;4374397;32;21115;-57
2020/12/25 08:09:40;;;;;;;216.57;103.23;;;;;;;;;;4371788;32;20229;-56
2020/12/25 08:12:10;;;;;;;264.97;125.03;;;;;;;;;;4373228;32;21107;-55
2020/12/25 08:14:40;;;;;;;238.97;108.33;;;;;;;;;;4372004;32;20320;-56
2020/12/25 08:17:07;;;;;;;218.83;102.97;;;;;;;;;;4370100;32;20411;-56
2020/12/25 08:19:36;;;;;;;237.67;105.97;;;;;;;;;;4378100;32;20632;-56
2020/12/25 08:22:05;;;;;;;241.43;102.97;;;;;;;;;;4370494;32;20226;-56
2020/12/25 08:24:31;;;;;;;229.80;108.13;;;;;;;;;;4365972;32;20342;-56
2020/12/25 08:27:03;;;;;;;217.60;105.23;;;;;;;;;;4372598;32;20296;-57
2020/12/25 08:29:30;;;;;;;226.17;109.73;;;;;;;;;;4370782;32;20210;-56
2020/12/25 08:32:05;;;;;;;219.77;104.93;;;;;;;;;;4360382;32;20391;-55
2020/12/25 08:34:31;;;;;;;207.27;96.77;;;;;;;;;;4370138;32;20367;-57
2020/12/25 08:36:57;;;;;;;211.47;105.37;;;;;;;;;;4364194;32;20277;-56
2020/12/25 08:39:30;;;;;;;206.23;94.47;;;;;;;;;;4369974;32;20221;-55
2020/12/25 08:41:57;;;;;;;170.27;84.40;;;;;;;;;;4370344;32;20320;-56
2020/12/25 08:44:23;;;;;;;126.97;65.30;;;;;;;;;;4368989;32;20226;-56
2020/12/25 08:46:48;;;;;;;135.83;70.60;;;;;;;;;;4374513;32;20243;-56
2020/12/25 08:49:29;;;;;;;199.60;83.10;;;;;;;;;;4367714;32;20431;-55
2020/12/25 08:51:54;;;;;;;216.50;121.00;;;;;;;;;;4365833;32;20394;-57
2020/12/25 08:54:27;;;;;;;178.43;92.70;;;;;;;;;;4349278;32;20258;-55
2020/12/25 08:56:53;;;;;;;209.13;103.03;;;;;;;;;;4370508;32;20299;-56
2020/12/25 08:59:20;;;;;;;214.23;106.13;;;;;;;;;;4345136;32;20648;-55
2020/12/25 09:01:51;;;;;;;194.17;97.00;;;;;;;;;;4363814;32;20317;-55
2020/12/25 09:04:22;;;;;;;219.43;102.97;;;;;;;;;;4369030;32;20248;-56
2020/12/25 09:06:51;;;;;;;213.73;103.50;;;;;;;;;;4362755;32;20265;-56
2020/12/25 09:09:17;;;;;;;267.60;116.43;;;;;;;;;;4370429;32;20777;-55
2020/12/25 09:11:44;;;;;;;259.90;125.50;;;;;;;;;;4371527;32;20524;-56
2020/12/25 09:14:09;;;;;;;268.63;127.17;;;;;;;;;;4358715;32;20234;-55
2020/12/25 09:16:35;;;;;;;269.63;136.53;;;;;;;;;;4372139;32;20330;-54
2020/12/25 09:19:00;;;;;;;293.63;140.67;;;;;;;;;;4347568;32;20777;-54
2020/12/25 09:21:29;;;;;;;326.27;147.93;;;;;;;;;;4359184;32;20356;-54
2020/12/25 09:23:56;;;;;;;336.53;147.17;;;;;;;;;;4352264;32;20293;-55
2020/12/25 09:26:22;;;;;;;304.13;145.13;;;;;;;;;;4351864;32;20251;-55
2020/12/25 09:28:48;;;;;;;329.47;149.10;;;;;;;;;;4345075;32;20308;-55
2020/12/25 09:31:13;;;;;;;346.00;151.87;;;;;;;;;;4342102;32;20305;-55
2020/12/25 09:33:40;;;;;;;318.10;149.67;;;;;;;;;;4344437;32;20239;-54
2020/12/25 09:36:07;;;;;;;314.07;154.73;;;;;;;;;;4359336;32;20754;-55
2020/12/25 09:38:33;;;;;;;319.83;149.37;;;;;;;;;;4360072;32;20237;-55
2020/12/25 09:41:00;;;;;;;363.53;164.10;;;;;;;;;;4362940;32;20240;-55
2020/12/25 09:43:28;;;;;;;374.93;162.47;;;;;;;;;;4343948;32;20651;-54
2020/12/25 09:45:53;;;;;;;343.13;154.50;;;;;;;;;;4343831;32;21156;-56
2020/12/25 09:48:19;;;;;;;364.80;162.10;;;;;;;;;;4366049;32;20237;-54
2020/12/25 09:50:44;;;;;;;362.53;154.03;;;;;;;;;;4367462;32;20373;-53
2020/12/25 09:53:10;;;;;;;356.83;162.63;;;;;;;;;;4358660;32;20768;-53
2020/12/25 09:55:38;;;;;;;380.53;167.23;;;;;;;;;;4360283;32;20300;-53
2020/12/25 09:58:04;;;;;;;334.37;154.20;;;;;;;;;;4370907;32;20309;-54
2020/12/25 10:00:30;;;;;;;308.90;142.77;;;;;;;;;;4356723;32;20245;-58
2020/12/25 10:02:56;;;;;;;394.33;181.90;;;;;;;;;;4365286;32;20800;-59
2020/12/25 10:05:21;;;;;;;366.97;168.47;;;;;;;;;;4371358;32;20386;-59
2020/12/25 10:07:48;;;;;;;397.37;176.07;;;;;;;;;;4365115;32;20407;-55
2020/12/25 10:10:14;;;;;;;365.07;171.07;;;;;;;;;;4371421;32;21232;-56
2020/12/25 10:12:40;;;;;;;383.20;185.13;;;;;;;;;;4344283;32;20233;-56
2020/12/25 10:15:05;;;;;;;400.67;194.37;;;;;;;;;;4359104;32;20316;-55
2020/12/25 10:17:31;;;;;;;410.03;188.27;;;;;;;;;;4362901;32;20722;-55
2020/12/25 10:19:56;;;;;;;411.10;191.90;;;;;;;;;;4366432;32;20552;-55
2020/12/25 10:22:22;;;;;;;375.57;183.63;;;;;;;;;;4348753;32;20521;-56
2020/12/25 10:24:48;;;;;;;398.40;195.70;;;;;;;;;;4370808;32;20772;-57
2020/12/25 10:27:13;;;;;;;399.03;190.13;;;;;;;;;;4363323;32;20351;-54
2020/12/25 10:29:39;;;;;;;407.20;202.67;;;;;;;;;;4355032;32;20311;-57
2020/12/25 10:32:04;;;;;;;418.97;209.40;;;;;;;;;;4361975;32;20419;-58
2020/12/25 10:34:30;;;;;;;396.93;193.67;;;;;;;;;;4353033;32;20309;-59
2020/12/25 10:36:55;;;;;;;405.30;198.37;;;;;;;;;;4366868;32;20365;-58
2020/12/25 10:39:21;;;;;;;423.07;212.67;;;;;;;;;;4359986;32;20723;-57
2020/12/25 10:41:47;;;;;;;414.10;204.13;;;;;;;;;;4341023;32;20316;-57
2020/12/25 10:44:13;;;;;;;423.53;212.37;;;;;;;;;;4354674;32;20260;-59
2020/12/25 10:46:39;;;;;;;434.00;225.80;;;;;;;;;;4334638;32;20386;-56
2020/12/25 10:49:04;;;;;;;421.47;208.10;;;;;;;;;;4352184;32;20608;-52
2020/12/25 10:51:30;;;;;;;414.07;207.93;;;;;;;;;;4358656;32;20286;-53
2020/12/25 10:53:56;;;;;;;387.23;198.33;;;;;;;;;;4332789;32;20736;-53
2020/12/25 10:56:31;;;;;;;389.20;198.97;;;;;;;;;;4371296;32;20244;-53
2020/12/25 10:58:57;;;;;;;408.97;204.90;;;;;;;;;;4372386;32;20241;-54
2020/12/25 11:01:27;;;;;;;420.57;214.97;;;;;;;;;;4365836;32;20689;-55
2020/12/25 11:03:54;;;;;;;377.43;193.13;;;;;;;;;;4367007;32;20225;-54
2020/12/25 11:06:28;;;;;;;379.33;197.07;;;;;;;;;;4345680;32;20222;-56
2020/12/25 11:08:54;;;;;;;392.50;200.10;;;;;;;;;;4362735;32;20264;-52
2020/12/25 11:11:23;;;;;;;391.13;208.87;;;;;;;;;;4358028;32;20218;-53
2020/12/25 11:13:49;;;;;;;391.57;204.23;;;;;;;;;;4363345;32;20805;-53
2020/12/25 11:16:25;;;;;;;397.73;220.23;;;;;;;;;;4365574;32;20316;-53
2020/12/25 11:18:52;;;;;;;416.40;217.20;;;;;;;;;;4372293;32;20651;-53
2020/12/25 11:21:20;;;;;;;429.87;227.10;;;;;;;;;;4360015;32;20349;-53
2020/12/25 11:23:45;;;;;;;447.37;235.27;;;;;;;;;;4362657;32;20347;-52
2020/12/25 11:26:18;;;;;;;419.43;236.97;;;;;;;;;;4354339;32;20409;-52
2020/12/25 11:28:44;;;;;;;444.50;247.20;;;;;;;;;;4354831;32;20399;-53
2020/12/25 11:31:13;;;;;;;447.93;241.03;;;;;;;;;;4355842;32;20234;-54
2020/12/25 11:33:39;;;;;;;433.50;231.73;;;;;;;;;;4369163;32;20318;-54
2020/12/25 11:36:06;;;;;;;434.13;233.43;;;;;;;;;;4359955;32;20729;-55
2020/12/25 11:38:31;;;;;;;456.13;254.43;;;;;;;;;;4367599;32;20210;-54
2020/12/25 11:40:56;;;;;;;464.13;255.80;;;;;;;;;;4369096;32;20285;-54
2020/12/25 11:43:22;;;;;;;464.10;271.33;;;;;;;;;;4352447;32;20685;-54
2020/12/25 11:45:48;;;;;;;459.83;264.10;;;;;;;;;;4371543;32;20252;-53
2020/12/25 11:48:13;;;;;;;467.37;264.73;;;;;;;;;;4358351;32;20273;-55
2020/12/25 11:50:39;;;;;;;474.90;271.30;;;;;;;;;;4365990;32;20726;-54
2020/12/25 11:53:05;;;;;;;366.20;182.13;;;;;;;;;;4370803;32;20351;-53
2020/12/25 11:55:30;;;;;;;369.57;184.53;;;;;;;;;;4371127;32;20226;-54
2020/12/25 11:57:55;;;;;;;592.40;358.17;;;;;;;;;;4372786;32;20264;-56
2020/12/25 12:00:21;;;;;;;507.63;310.17;;;;;;;;;;4362756;32;20230;-55
2020/12/25 12:02:46;;;;;;;476.40;274.67;;;;;;;;;;4364180;32;20252;-55
2020/12/25 12:05:12;;;;;;;474.07;271.17;;;;;;;;;;4367443;32;20231;-55
2020/12/25 12:07:37;;;;;;;482.20;274.97;;;;;;;;;;4352566;32;20284;-56
2020/12/25 12:10:02;;;;;;;457.03;258.90;;;;;;;;;;4351947;32;20313;-56
2020/12/25 12:12:28;;;;;;;468.57;268.33;;;;;;;;;;4365561;32;20403;-55
2020/12/25 12:14:53;;;;;;;483.37;276.43;;;;;;;;;;4353573;32;20292;-55
2020/12/25 12:17:19;;;;;;;441.80;251.13;;;;;;;;;;4372239;32;20229;-55
2020/12/25 12:19:44;;;;;;;411.70;224.87;;;;;;;;;;4358615;32;20553;-55
2020/12/25 12:22:10;;;;;;;403.63;224.63;;;;;;;;;;4366588;32;20307;-55
2020/12/25 12:24:35;;;;;;;372.43;207.93;;;;;;;;;;4372445;32;20408;-55
2020/12/25 12:27:00;;;;;;;392.47;208.50;;;;;;;;;;4369672;32;20284;-55
2020/12/25 12:29:26;;;;;;;421.77;213.70;;;;;;;;;;4355757;32;20222;-57
2020/12/25 12:31:51;;;;;;;416.67;219.83;;;;;;;;;;4357506;32;20307;-55
2020/12/25 12:34:17;;;;;;;381.57;203.30;;;;;;;;;;4361842;32;20340;-55
2020/12/25 12:36:45;;;;;;;405.00;211.63;;;;;;;;;;4364333;32;20655;-55
2020/12/25 12:39:11;;;;;;;415.00;221.07;;;;;;;;;;4362643;32;20272;-55
2020/12/25 12:41:36;;;;;;;388.30;214.77;;;;;;;;;;4348666;32;20292;-56
2020/12/25 12:44:02;;;;;;;414.23;214.80;;;;;;;;;;4355343;32;20864;-56
2020/12/25 12:46:27;;;;;;;415.30;216.43;;;;;;;;;;4356810;32;20277;-56
2020/12/25 12:48:52;;;;;;;435.17;226.07;;;;;;;;;;4359339;32;20687;-56
2020/12/25 12:51:18;;;;;;;385.93;204.97;;;;;;;;;;4360368;32;20363;-56
2020/12/25 12:53:43;;;;;;;421.77;218.40;;;;;;;;;;4355033;32;20234;-55
2020/12/25 12:56:12;;;;;;;436.90;218.73;;;;;;;;;;4359648;32;20606;-56
2020/12/25 12:58:38;;;;;;;403.97;218.23;;;;;;;;;;4361373;32;20369;-56
2020/12/25 13:01:04;;;;;;;457.90;236.87;;;;;;;;;;4348376;32;20304;-56
2020/12/25 13:03:29;;;;;;;393.57;206.67;;;;;;;;;;4357842;32;20310;-55
2020/12/25 13:05:55;;;;;;;399.80;212.80;;;;;;;;;;4359640;32;20641;-55
2020/12/25 13:08:20;;;;;;;407.13;215.30;;;;;;;;;;4358903;32;20235;-55
2020/12/25 13:10:46;;;;;;;407.53;228.77;;;;;;;;;;4363783;32;20309;-56
2020/12/25 13:13:12;;;;;;;442.40;229.03;;;;;;;;;;4353445;32;20210;-56
2020/12/25 13:15:37;;;;;;;448.87;244.80;;;;;;;;;;4368731;32;20277;-57
2020/12/25 13:18:03;;;;;;;451.87;251.30;;;;;;;;;;4359442;32;20244;-56
2020/12/25 13:20:28;;;;;;;482.83;279.47;;;;;;;;;;4356761;32;20308;-56
2020/12/25 13:22:54;;;;;;;483.10;293.07;;;;;;;;;;4363815;32;20628;-56
2020/12/25 13:25:19;;;;;;;513.53;303.33;;;;;;;;;;4347644;32;20644;-55
2020/12/25 13:27:45;;;;;;;530.43;338.33;;;;;;;;;;4363410;32;20394;-56
2020/12/25 13:30:10;;;;;;;544.33;341.77;;;;;;;;;;4367668;32;20540;-56
2020/12/25 13:32:35;;;;;;;547.30;354.27;;;;;;;;;;4375009;32;20238;-56
2020/12/25 13:35:01;;;;;;;540.97;355.63;;;;;;;;;;4370451;32;20605;-56
2020/12/25 13:37:27;;;;;;;552.13;360.23;;;;;;;;;;4366316;32;20292;-56
2020/12/25 13:39:52;;;;;;;559.73;365.03;;;;;;;;;;4346883;32;20259;-56
2020/12/25 13:42:18;;;;;;;577.53;381.83;;;;;;;;;;4360238;32;20250;-55
2020/12/25 13:44:45;;;;;;;581.53;382.90;;;;;;;;;;4360808;32;20230;-55
2020/12/25 13:47:11;;;;;;;595.47;402.40;;;;;;;;;;4360393;32;20222;-56
2020/12/25 13:49:36;;;;;;;576.67;388.43;;;;;;;;;;4374659;32;20315;-56
2020/12/25 13:52:02;;;;;;;566.93;380.23;;;;;;;;;;4381153;32;20297;-55
2020/12/25 13:54:27;;;;;;;589.07;394.83;;;;;;;;;;4373805;32;20226;-56
2020/12/25 13:56:55;;;;;;;577.87;386.67;;;;;;;;;;4364106;32;20644;-55
2020/12/25 13:59:20;;;;;;;576.73;385.67;;;;;;;;;;4371850;32;20583;-55